createdAt,value
2022-07-29T00:00:32.797Z,49.87
2022-07-29T00:03:07.412Z,49.77
2022-07-29T00:05:38.136Z,49.78
2022-07-29T00:08:12.412Z,49.88
2022-07-29T00:10:43.369Z,49.77
2022-07-29T00:13:14.031Z,49.85
2022-07-29T00:15:44.699Z,49.81
2022-07-29T00:18:15.331Z,50.00
2022-07-29T00:20:46.072Z,49.94
2022-07-29T00:23:16.799Z,50.14
2022-07-29T00:25:47.494Z,49.98
2022-07-29T00:28:18.131Z,50.10
2022-07-29T00:30:48.760Z,49.98
2022-07-29T00:33:19.383Z,50.17
2022-07-29T00:35:50.142Z,50.16
2022-07-29T00:38:21.260Z,50.14
2022-07-29T00:40:51.965Z,50.30
2022-07-29T00:43:22.694Z,50.37
2022-07-29T00:45:53.682Z,50.33
2022-07-29T00:48:24.351Z,50.42
2022-07-29T00:50:55.157Z,50.45
2022-07-29T00:53:25.941Z,50.47
2022-07-29T00:55:58.154Z,50.88
2022-07-29T00:58:28.797Z,50.83
2022-07-29T01:00:59.540Z,50.78
2022-07-29T01:03:30.324Z,50.82
2022-07-29T01:06:00.968Z,51.04
2022-07-29T01:08:31.701Z,50.79
2022-07-29T01:11:02.505Z,51.03
2022-07-29T01:13:34.455Z,51.22
2022-07-29T01:16:05.898Z,51.28
2022-07-29T01:18:37.860Z,51.33
2022-07-29T01:21:27.919Z,51.47
2022-07-29T01:24:05.018Z,51.31
2022-07-29T01:26:37.694Z,51.25
2022-07-29T01:29:12.417Z,51.34
2022-07-29T01:31:58.629Z,51.61
2022-07-29T01:34:36.131Z,51.58
2022-07-29T01:37:09.077Z,51.65
2022-07-29T01:39:40.035Z,51.73
2022-07-29T01:42:13.215Z,51.70
2022-07-29T01:44:44.473Z,51.68
2022-07-29T01:47:16.537Z,51.74
2022-07-29T01:49:49.085Z,51.98
2022-07-29T01:52:21.596Z,51.92
2022-07-29T01:54:53.593Z,51.95
2022-07-29T01:57:26.546Z,52.06
2022-07-29T01:59:57.369Z,52.21
2022-07-29T02:02:28.077Z,52.19
2022-07-29T02:04:58.883Z,52.52
2022-07-29T02:07:30.695Z,52.58
2022-07-29T02:10:01.346Z,52.68
2022-07-29T02:12:32.021Z,52.55
2022-07-29T02:15:03.348Z,52.72
2022-07-29T02:17:35.656Z,52.65
2022-07-29T02:20:10.801Z,52.73
2022-07-29T02:22:41.723Z,52.74
2022-07-29T02:25:14.079Z,52.75
2022-07-29T02:27:45.169Z,52.91
2022-07-29T02:30:15.992Z,53.10
2022-07-29T02:32:47.090Z,52.88
2022-07-29T02:35:18.011Z,53.12
2022-07-29T02:38:09.412Z,53.08
2022-07-29T02:40:40.475Z,53.05
2022-07-29T02:43:11.151Z,53.04
2022-07-29T02:45:41.806Z,53.03
2022-07-29T02:48:13.044Z,53.08
2022-07-29T02:50:45.121Z,53.07
2022-07-29T02:53:17.354Z,53.19
2022-07-29T02:55:48.565Z,53.27
2022-07-29T02:58:22.057Z,53.09
2022-07-29T03:00:52.857Z,53.23
2022-07-29T03:03:23.510Z,52.97
2022-07-29T03:05:54.832Z,53.20
2022-07-29T03:08:25.592Z,53.20
2022-07-29T03:10:56.256Z,53.12
2022-07-29T03:13:26.886Z,53.31
2022-07-29T03:15:57.593Z,53.35
2022-07-29T03:18:28.357Z,53.49
2022-07-29T03:20:59.089Z,53.11
2022-07-29T03:23:33.238Z,53.38
2022-07-29T03:26:07.636Z,53.25
2022-07-29T03:28:38.286Z,53.45
2022-07-29T03:31:10.551Z,53.16
2022-07-29T03:33:41.189Z,53.41
2022-07-29T03:36:12.082Z,53.66
2022-07-29T03:38:42.711Z,53.53
2022-07-29T03:41:13.514Z,53.53
2022-07-29T03:43:49.693Z,53.28
2022-07-29T03:46:20.692Z,53.73
2022-07-29T03:48:51.550Z,53.56
2022-07-29T03:51:33.079Z,53.36
2022-07-29T03:54:09.824Z,53.59
2022-07-29T03:56:42.212Z,53.66
2022-07-29T03:59:12.827Z,53.67
2022-07-29T04:01:43.602Z,53.66
2022-07-29T04:04:14.587Z,53.82
2022-07-29T04:06:46.066Z,53.89
2022-07-29T04:09:19.171Z,53.84
2022-07-29T04:12:03.565Z,53.60
2022-07-29T04:14:35.215Z,53.88
2022-07-29T04:17:06.258Z,53.78
2022-07-29T04:19:36.904Z,53.80
2022-07-29T04:22:07.588Z,53.98
2022-07-29T04:24:38.242Z,53.85
2022-07-29T04:27:08.981Z,54.05
2022-07-29T04:29:56.924Z,53.98
2022-07-29T04:32:28.451Z,54.07
2022-07-29T04:34:59.117Z,54.17
2022-07-29T04:37:29.819Z,54.09
2022-07-29T04:40:00.561Z,54.40
2022-07-29T04:42:31.209Z,54.13
2022-07-29T04:45:01.850Z,54.41
2022-07-29T04:47:32.634Z,54.34
2022-07-29T04:50:03.360Z,54.29
2022-07-29T04:52:34.008Z,54.31
2022-07-29T04:55:05.260Z,54.03
2022-07-29T04:57:35.931Z,54.32
2022-07-29T05:00:07.843Z,54.32
2022-07-29T05:02:38.567Z,54.17
2022-07-29T05:05:09.801Z,54.22
2022-07-29T05:07:40.452Z,54.31
2022-07-29T05:10:12.910Z,54.59
2022-07-29T05:12:43.631Z,54.39
2022-07-29T05:15:14.264Z,54.60
2022-07-29T05:17:45.074Z,54.63
2022-07-29T05:20:15.694Z,54.33
2022-07-29T05:22:46.404Z,54.28
2022-07-29T05:25:17.081Z,54.46
2022-07-29T05:27:47.783Z,54.22
2022-07-29T05:30:21.795Z,54.16
2022-07-29T05:32:52.661Z,54.02
2022-07-29T05:35:23.680Z,53.91
2022-07-29T05:37:54.330Z,53.68
2022-07-29T05:40:25.196Z,53.80
2022-07-29T05:42:55.873Z,53.90
2022-07-29T05:45:26.693Z,53.86
2022-07-29T05:47:58.287Z,53.84
2022-07-29T05:50:28.976Z,53.51
2022-07-29T05:52:59.761Z,53.35
2022-07-29T05:55:49.541Z,53.19
2022-07-29T05:58:20.284Z,53.51
2022-07-29T06:00:51.131Z,53.31
2022-07-29T06:03:21.819Z,53.33
2022-07-29T06:05:52.439Z,53.39
2022-07-29T06:08:23.102Z,53.22
2022-07-29T06:10:53.744Z,53.07
2022-07-29T06:13:24.473Z,53.19
2022-07-29T06:15:55.336Z,52.71
2022-07-29T06:18:26.042Z,52.85
2022-07-29T06:20:56.786Z,52.85
2022-07-29T06:23:27.488Z,52.86
2022-07-29T06:25:58.078Z,52.56
2022-07-29T06:28:29.293Z,52.59
2022-07-29T06:31:00.065Z,52.43
2022-07-29T06:33:30.853Z,52.38
2022-07-29T06:36:01.874Z,52.11
2022-07-29T06:38:34.342Z,52.00
2022-07-29T06:41:13.654Z,51.86
2022-07-29T06:43:50.629Z,51.70
2022-07-29T06:46:24.046Z,51.59
2022-07-29T06:48:55.320Z,51.34
2022-07-29T06:51:26.215Z,51.16
2022-07-29T06:54:02.974Z,51.11
2022-07-29T06:56:38.685Z,50.87
2022-07-29T06:59:11.398Z,50.67
2022-07-29T07:01:42.948Z,50.72
2022-07-29T07:04:14.787Z,50.33
2022-07-29T07:06:46.083Z,50.33
2022-07-29T07:09:16.723Z,50.42
2022-07-29T07:11:49.543Z,50.13
2022-07-29T07:14:21.616Z,49.90
2022-07-29T07:16:52.811Z,49.91
2022-07-29T07:19:25.619Z,49.44
2022-07-29T07:21:56.313Z,49.13
2022-07-29T07:24:26.992Z,49.35
2022-07-29T07:26:57.607Z,49.05
2022-07-29T07:29:28.285Z,48.70
2022-07-29T07:32:01.221Z,48.38
2022-07-29T07:34:32.339Z,48.43
2022-07-29T07:37:03.006Z,48.06
2022-07-29T07:39:33.716Z,48.05
2022-07-29T07:42:04.500Z,47.83
2022-07-29T07:44:51.311Z,47.42
2022-07-29T07:47:27.964Z,47.09
2022-07-29T07:49:58.963Z,46.74
2022-07-29T07:52:29.633Z,46.51
2022-07-29T07:55:00.326Z,46.28
2022-07-29T07:57:31.070Z,46.04
2022-07-29T08:00:01.726Z,45.39
2022-07-29T08:02:32.527Z,44.97
2022-07-29T08:05:03.320Z,44.75
2022-07-29T08:07:34.017Z,44.76
2022-07-29T08:10:04.944Z,44.53
2022-07-29T08:12:35.718Z,44.19
2022-07-29T08:15:08.746Z,43.70
2022-07-29T08:17:39.393Z,43.52
2022-07-29T08:20:10.606Z,43.54
2022-07-29T08:22:41.439Z,43.16
2022-07-29T08:25:12.277Z,43.05
2022-07-29T08:27:47.707Z,42.65
2022-07-29T08:30:18.500Z,42.93
2022-07-29T08:32:54.324Z,42.27
2022-07-29T08:35:26.087Z,42.07
2022-07-29T08:37:57.936Z,41.78
2022-07-29T08:40:32.051Z,41.68
2022-07-29T08:43:08.109Z,41.41
2022-07-29T08:45:44.745Z,40.85
2022-07-29T08:48:19.730Z,40.68
2022-07-29T08:50:50.934Z,40.67
2022-07-29T08:53:21.654Z,39.99
2022-07-29T08:55:52.412Z,39.82
2022-07-29T08:58:25.142Z,39.55
2022-07-29T09:00:58.340Z,38.77
2022-07-29T09:03:32.851Z,38.39
2022-07-29T09:06:03.631Z,38.46
2022-07-29T09:08:35.132Z,37.95
2022-07-29T09:11:05.915Z,37.85
2022-07-29T09:13:37.057Z,37.43
2022-07-29T09:16:09.574Z,37.19
2022-07-29T09:18:41.042Z,36.95
2022-07-29T09:21:32.056Z,36.60
2022-07-29T09:24:07.739Z,36.16
2022-07-29T09:26:39.234Z,35.85
2022-07-29T09:29:13.582Z,35.75
2022-07-29T09:31:45.006Z,35.50
2022-07-29T09:34:16.302Z,35.27
2022-07-29T09:36:47.329Z,34.73
2022-07-29T09:39:18.539Z,34.86
2022-07-29T09:41:54.355Z,34.52
2022-07-29T09:44:25.453Z,34.32
2022-07-29T09:47:07.153Z,33.97
2022-07-29T09:49:38.439Z,33.73
2022-07-29T09:52:09.979Z,33.47
2022-07-29T09:54:40.718Z,32.88
2022-07-29T09:57:13.699Z,32.62
2022-07-29T09:59:50.066Z,32.21
2022-07-29T10:02:23.932Z,31.97
2022-07-29T10:04:54.807Z,31.53
2022-07-29T10:07:25.475Z,31.37
2022-07-29T10:09:57.194Z,31.12
2022-07-29T10:12:27.907Z,30.71
2022-07-29T10:14:58.546Z,30.55
2022-07-29T10:17:29.205Z,29.99
2022-07-29T10:19:59.867Z,29.94
2022-07-29T10:22:51.875Z,29.74
2022-07-29T10:25:21.518Z,29.22
2022-07-29T10:27:53.492Z,29.19
2022-07-29T10:30:24.418Z,28.86
2022-07-29T10:33:11.513Z,28.88
2022-07-29T10:35:55.920Z,28.69
2022-07-29T10:38:45.722Z,28.62
2022-07-29T10:41:32.237Z,28.27
2022-07-29T10:44:19.440Z,27.74
2022-07-29T10:46:54.583Z,27.15
2022-07-29T10:49:30.424Z,26.90
2022-07-29T10:52:03.479Z,26.67
2022-07-29T10:54:44.657Z,26.51
2022-07-29T10:57:54.459Z,26.31
2022-07-29T11:00:30.146Z,26.05
2022-07-29T11:03:04.659Z,25.75
2022-07-29T11:09:07.835Z,24.81
2022-07-29T11:11:44.180Z,24.75
2022-07-29T11:14:26.659Z,24.69
2022-07-29T11:17:06.391Z,24.66
2022-07-29T11:19:45.679Z,24.38
2022-07-29T11:25:50.156Z,24.04
2022-07-29T11:28:13.552Z,23.79
2022-07-29T11:30:51.778Z,23.37
2022-07-29T11:33:54.113Z,23.37
2022-07-29T11:36:28.299Z,23.11
2022-07-29T11:39:15.053Z,22.60
2022-07-29T11:41:45.984Z,22.86
2022-07-29T11:44:18.132Z,22.88
2022-07-29T11:46:50.088Z,22.63
2022-07-29T11:49:31.665Z,22.58
2022-07-29T11:52:04.282Z,22.33
2022-07-29T11:54:57.476Z,21.82
2022-07-29T11:57:36.337Z,21.89
2022-07-29T12:00:12.137Z,21.82
2022-07-29T12:02:48.216Z,21.73
2022-07-29T12:05:35.838Z,21.61
2022-07-29T12:08:12.766Z,21.83
2022-07-29T12:10:46.977Z,21.58
2022-07-29T12:13:19.554Z,21.70
2022-07-29T12:16:00.105Z,21.18
2022-07-29T12:18:31.138Z,21.11
2022-07-29T12:21:04.964Z,20.86
2022-07-29T12:23:36.117Z,20.51
2022-07-29T12:26:10.545Z,20.80
2022-07-29T12:28:41.598Z,20.93
2022-07-29T12:31:44.077Z,20.80
2022-07-29T12:34:07.720Z,20.50
2022-07-29T12:36:38.483Z,20.48
2022-07-29T12:39:10.218Z,20.43
2022-07-29T12:41:40.981Z,20.08
2022-07-29T12:44:11.612Z,20.06
2022-07-29T12:46:42.296Z,20.03
2022-07-29T12:49:13.142Z,19.94
2022-07-29T12:51:43.843Z,19.88
2022-07-29T12:54:15.357Z,19.55
2022-07-29T12:56:46.489Z,19.22
2022-07-29T12:59:18.934Z,19.26
2022-07-29T13:01:50.525Z,19.15
2022-07-29T13:04:28.775Z,19.41
2022-07-29T13:07:04.431Z,19.77
2022-07-29T13:09:42.502Z,19.04
2022-07-29T13:12:13.976Z,18.72
2022-07-29T13:14:46.980Z,18.96
2022-07-29T13:17:18.212Z,18.54
2022-07-29T13:19:50.799Z,18.80
2022-07-29T13:22:22.130Z,18.80
2022-07-29T13:24:53.899Z,18.75
2022-07-29T13:27:25.331Z,18.48
2022-07-29T13:29:57.628Z,18.74
2022-07-29T13:32:29.131Z,18.58
2022-07-29T13:35:04.973Z,18.40
2022-07-29T13:37:39.323Z,18.44
2022-07-29T13:40:10.813Z,18.57
2022-07-29T13:42:41.959Z,18.60
2022-07-29T13:45:13.204Z,18.43
2022-07-29T13:47:49.232Z,18.64
2022-07-29T13:50:20.306Z,18.37
2022-07-29T13:52:51.946Z,18.47
2022-07-29T13:55:22.622Z,18.24
2022-07-29T13:57:53.403Z,18.38
2022-07-29T14:00:24.778Z,18.07
2022-07-29T14:02:55.529Z,17.96
2022-07-29T14:05:26.691Z,18.14
2022-07-29T14:07:57.335Z,18.11
2022-07-29T14:10:28.107Z,18.20
2022-07-29T14:12:58.777Z,18.11
2022-07-29T14:15:29.479Z,18.00
2022-07-29T14:18:00.264Z,17.92
2022-07-29T14:20:31.808Z,17.85
2022-07-29T14:23:02.546Z,17.96
2022-07-29T14:25:33.701Z,18.06
2022-07-29T14:28:04.644Z,18.08
2022-07-29T14:30:35.373Z,17.99
2022-07-29T14:33:06.105Z,18.17
2022-07-29T14:35:36.763Z,18.15
2022-07-29T14:38:07.414Z,18.11
2022-07-29T14:40:38.308Z,17.93
2022-07-29T14:43:09.097Z,17.83
2022-07-29T14:45:39.767Z,17.89
2022-07-29T14:48:12.607Z,17.68
2022-07-29T14:50:43.219Z,17.90
2022-07-29T14:53:14.680Z,17.78
2022-07-29T14:55:45.389Z,17.72
2022-07-29T14:58:16.755Z,17.79
2022-07-29T15:00:47.679Z,17.88
2022-07-29T15:03:23.813Z,17.98
2022-07-29T15:05:55.120Z,17.87
2022-07-29T15:08:26.447Z,17.83
2022-07-29T15:10:58.679Z,17.98
2022-07-29T15:13:29.350Z,17.99
2022-07-29T15:16:00.415Z,18.15
2022-07-29T15:18:31.347Z,18.14
2022-07-29T15:21:03.490Z,18.31
2022-07-29T15:23:34.159Z,18.52
2022-07-29T15:26:04.820Z,18.56
2022-07-29T15:28:35.513Z,18.50
2022-07-29T15:31:06.219Z,18.50
2022-07-29T15:33:36.877Z,18.54
2022-07-29T15:36:08.153Z,18.76
2022-07-29T15:38:41.619Z,18.61
2022-07-29T15:41:15.609Z,18.73
2022-07-29T15:43:48.537Z,18.88
2022-07-29T15:46:37.596Z,18.72
2022-07-29T15:49:08.740Z,19.05
2022-07-29T15:51:39.720Z,19.18
2022-07-29T15:54:10.445Z,19.13
2022-07-29T15:56:41.162Z,19.09
2022-07-29T15:59:11.831Z,19.12
2022-07-29T16:01:53.445Z,19.22
2022-07-29T16:04:24.252Z,19.43
2022-07-29T16:06:55.265Z,19.54
2022-07-29T16:09:26.422Z,19.57
2022-07-29T16:11:57.074Z,19.76
2022-07-29T16:14:28.071Z,19.73
2022-07-29T16:17:02.093Z,20.06
2022-07-29T16:19:33.177Z,19.91
2022-07-29T16:22:04.011Z,19.97
2022-07-29T16:24:34.766Z,20.01
2022-07-29T16:27:05.604Z,20.19
2022-07-29T16:29:37.611Z,20.27
2022-07-29T16:32:08.671Z,20.31
2022-07-29T16:34:40.125Z,20.48
2022-07-29T16:37:10.811Z,20.58
2022-07-29T16:39:41.631Z,20.65
2022-07-29T16:42:25.820Z,20.74
2022-07-29T16:45:03.031Z,20.76
2022-07-29T16:47:33.779Z,21.03
2022-07-29T16:50:05.709Z,21.27
2022-07-29T16:52:37.784Z,21.40
2022-07-29T16:55:09.567Z,21.61
2022-07-29T16:57:42.014Z,21.63
2022-07-29T17:00:14.001Z,21.79
2022-07-29T17:02:44.684Z,21.86
2022-07-29T17:05:15.988Z,21.99
2022-07-29T17:07:46.706Z,22.20
2022-07-29T17:10:17.351Z,22.36
2022-07-29T17:12:48.054Z,22.47
2022-07-29T17:15:19.039Z,22.58
2022-07-29T17:17:56.402Z,22.89
2022-07-29T17:20:28.071Z,23.05
2022-07-29T17:23:00.134Z,23.00
2022-07-29T17:25:30.912Z,23.13
2022-07-29T17:28:01.704Z,23.49
2022-07-29T17:30:32.572Z,23.34
2022-07-29T17:33:03.253Z,23.48
2022-07-29T17:35:51.414Z,23.72
2022-07-29T17:38:22.082Z,23.82
2022-07-29T17:40:52.695Z,23.96
2022-07-29T17:43:23.448Z,24.13
2022-07-29T17:45:59.336Z,24.45
2022-07-29T17:48:30.255Z,24.90
2022-07-29T17:51:00.920Z,25.32
2022-07-29T17:53:31.498Z,25.35
2022-07-29T17:56:02.315Z,25.60
2022-07-29T17:58:33.115Z,25.79
2022-07-29T18:01:03.796Z,26.33
2022-07-29T18:03:34.477Z,26.19
2022-07-29T18:06:08.362Z,26.72
2022-07-29T18:08:39.218Z,27.00
2022-07-29T18:11:09.945Z,27.20
2022-07-29T18:13:45.752Z,27.30
2022-07-29T18:16:16.561Z,27.34
2022-07-29T18:18:47.506Z,27.84
2022-07-29T18:21:18.223Z,27.88
2022-07-29T18:24:09.616Z,27.87
2022-07-29T18:26:40.730Z,28.27
2022-07-29T18:29:12.527Z,28.65
2022-07-29T18:31:43.181Z,28.79
2022-07-29T18:34:13.961Z,28.88
2022-07-29T18:36:45.978Z,29.30
2022-07-29T18:39:21.018Z,29.42
2022-07-29T18:41:52.086Z,29.74
2022-07-29T18:44:22.991Z,30.07
2022-07-29T18:46:54.506Z,30.19
2022-07-29T18:49:25.231Z,30.42
2022-07-29T18:51:57.075Z,30.76
2022-07-29T18:54:27.726Z,30.89
2022-07-29T18:56:58.656Z,31.14
2022-07-29T18:59:30.671Z,31.58
2022-07-29T19:02:01.435Z,31.82
2022-07-29T19:04:32.187Z,32.07
2022-07-29T19:07:03.640Z,32.38
2022-07-29T19:09:34.642Z,32.69
2022-07-29T19:12:14.528Z,32.77
2022-07-29T19:14:45.238Z,32.97
2022-07-29T19:17:15.924Z,33.36
2022-07-29T19:19:46.667Z,33.39
2022-07-29T19:22:17.377Z,33.87
2022-07-29T19:24:48.185Z,34.18
2022-07-29T19:27:19.044Z,34.56
2022-07-29T19:29:49.731Z,34.90
2022-07-29T19:32:24.979Z,34.98
2022-07-29T19:35:13.972Z,35.35
2022-07-29T19:37:44.688Z,35.56
2022-07-29T19:40:16.450Z,35.59
2022-07-29T19:42:48.349Z,35.65
2022-07-29T19:45:19.466Z,35.98
2022-07-29T19:47:50.217Z,36.29
2022-07-29T19:50:20.982Z,36.56
2022-07-29T19:52:51.771Z,36.48
2022-07-29T19:55:23.631Z,37.03
2022-07-29T19:57:54.329Z,36.93
2022-07-29T20:00:26.136Z,37.07
2022-07-29T20:02:57.546Z,37.28
2022-07-29T20:05:28.504Z,37.14
2022-07-29T20:07:59.429Z,37.45
2022-07-29T20:10:30.189Z,37.54
2022-07-29T20:13:00.809Z,37.86
2022-07-29T20:15:31.587Z,37.93
2022-07-29T20:18:02.482Z,37.92
2022-07-29T20:20:33.187Z,38.42
2022-07-29T20:23:03.905Z,38.63
2022-07-29T20:25:34.536Z,38.88
2022-07-29T20:28:05.532Z,39.26
2022-07-29T20:30:36.166Z,39.36
2022-07-29T20:33:09.395Z,39.53
2022-07-29T20:35:41.129Z,39.63
2022-07-29T20:38:16.294Z,39.80
2022-07-29T20:40:49.875Z,39.84
2022-07-29T20:43:20.527Z,40.22
2022-07-29T20:45:51.151Z,40.17
2022-07-29T20:48:21.961Z,40.42
2022-07-29T20:50:53.124Z,40.70
2022-07-29T20:53:23.958Z,40.86
2022-07-29T20:55:55.222Z,41.19
2022-07-29T20:58:25.901Z,41.37
2022-07-29T21:00:56.632Z,41.47
2022-07-29T21:03:27.385Z,41.81
2022-07-29T21:05:58.039Z,41.90
2022-07-29T21:08:29.032Z,42.13
2022-07-29T21:10:59.655Z,42.28
2022-07-29T21:13:30.418Z,42.58
2022-07-29T21:16:03.472Z,42.72
2022-07-29T21:18:37.829Z,42.90
2022-07-29T21:21:09.045Z,42.97
2022-07-29T21:23:39.756Z,43.33
2022-07-29T21:26:12.983Z,43.46
2022-07-29T21:28:44.009Z,43.57
2022-07-29T21:31:15.028Z,43.88
2022-07-29T21:33:46.291Z,43.88
2022-07-29T21:36:46.481Z,44.07
2022-07-29T21:39:08.165Z,44.38
2022-07-29T21:41:38.879Z,44.53
2022-07-29T21:44:09.557Z,44.64
2022-07-29T21:46:40.244Z,44.88
2022-07-29T21:49:10.957Z,45.18
2022-07-29T21:51:41.663Z,45.23
2022-07-29T21:54:12.577Z,45.40
2022-07-29T21:56:44.805Z,45.60
2022-07-29T21:59:22.169Z,45.76
2022-07-29T22:01:53.026Z,45.83
2022-07-29T22:04:23.971Z,46.04
2022-07-29T22:06:54.659Z,46.15
2022-07-29T22:09:25.507Z,46.36
2022-07-29T22:11:56.179Z,46.47
2022-07-29T22:14:27.174Z,46.75
2022-07-29T22:16:58.466Z,46.77
2022-07-29T22:19:30.298Z,47.00
2022-07-29T22:22:01.027Z,47.15
2022-07-29T22:24:31.730Z,47.18
2022-07-29T22:27:02.628Z,47.33
2022-07-29T22:29:33.545Z,47.53
2022-07-29T22:32:04.203Z,47.41
2022-07-29T22:34:37.886Z,47.63
2022-07-29T22:37:08.804Z,47.82
2022-07-29T22:39:39.518Z,47.94
2022-07-29T22:42:10.279Z,47.91
2022-07-29T22:44:41.025Z,48.16
2022-07-29T22:47:11.687Z,48.16
2022-07-29T22:49:42.406Z,48.29
2022-07-29T22:52:13.038Z,48.25
2022-07-29T22:54:46.067Z,48.46
2022-07-29T22:57:16.665Z,48.60
2022-07-29T22:59:47.372Z,48.87
2022-07-29T23:02:18.039Z,48.84
2022-07-29T23:04:48.823Z,49.00
2022-07-29T23:07:19.639Z,48.94
2022-07-29T23:09:50.332Z,49.28
2022-07-29T23:12:20.972Z,49.49
2022-07-29T23:14:51.742Z,49.51
2022-07-29T23:17:22.443Z,49.43
2022-07-29T23:19:53.181Z,49.71
2022-07-29T23:22:23.951Z,49.59
2022-07-29T23:24:54.645Z,49.74
2022-07-29T23:27:25.664Z,49.81
2022-07-29T23:29:56.296Z,49.83
2022-07-29T23:32:26.853Z,49.81
2022-07-29T23:34:57.624Z,49.98
2022-07-29T23:37:28.310Z,49.99
2022-07-29T23:39:59.037Z,50.20
2022-07-29T23:42:29.749Z,50.25
2022-07-29T23:45:00.492Z,50.25
2022-07-29T23:47:31.238Z,50.39
2022-07-29T23:50:01.973Z,50.57
2022-07-29T23:52:32.599Z,50.75
2022-07-29T23:55:37.168Z,50.64
2022-07-29T23:57:54.406Z,50.62
